CBR weather

Canberra International Airport
Canberra, Australian Capital Territory, Australia

Public forecast

Using degrees Celsius for public forecast. Weather courtesy of forecast.io.

Current aviation weather report (METAR) for Canberra International Airport

Retrieved 2019/10/16 08:30 UTC (0 seconds ago):

YSCB 160830Z AUTO 33009KT 9999 // BKN033 OVC040 15/11 Q1010 RMK USE TAF FOR ARRVIALS AFTER 0900Z

Aviation forecast (TAF) for Canberra International Airport

Forecast is more than 12 hours old.

Retrieved 2019/10/15 06:00 UTC (1 day ago):

TAF YSCB 150532Z 1506/1606 30012KT CAVOK BECMG 1509/1511 12003KT CAVOK FM151700 VRB03KT 9999 SCT010 BKN020 BECMG 1521/1523 33014KT 9999 -SHRA SCT010 BKN050 INTER 1600/1604 5000 SHRA BKN010